createdAt,value
2019-04-30T00:00:09.079Z,12.35
2019-04-30T00:03:06.819Z,12.37
2019-04-30T00:05:39.105Z,12.32
2019-04-30T00:08:10.934Z,12.27
2019-04-30T00:10:42.725Z,12.22
2019-04-30T00:13:20.492Z,12.19
2019-04-30T00:15:52.824Z,12.12
2019-04-30T00:18:21.990Z,12.07
2019-04-30T00:20:55.356Z,12.02
2019-04-30T00:23:30.640Z,12.00
2019-04-30T00:26:06.015Z,11.93
2019-04-30T00:28:35.417Z,11.89
2019-04-30T00:31:07.737Z,11.86
2019-04-30T00:33:39.519Z,11.83
2019-04-30T00:36:12.031Z,11.78
2019-04-30T00:38:44.808Z,11.75
2019-04-30T00:41:16.938Z,11.72
2019-04-30T00:43:50.783Z,11.71
2019-04-30T00:46:25.465Z,11.69
2019-04-30T00:49:08.551Z,11.71
2019-04-30T00:51:29.628Z,11.72
2019-04-30T00:54:01.475Z,11.74
2019-04-30T00:56:33.289Z,11.74
2019-04-30T00:59:07.010Z,11.71
2019-04-30T01:01:53.124Z,11.71
2019-04-30T01:04:30.251Z,11.68
2019-04-30T01:07:07.180Z,11.67
2019-04-30T01:09:39.612Z,11.66
2019-04-30T01:12:09.395Z,11.65
2019-04-30T01:14:41.298Z,11.63
2019-04-30T01:17:13.093Z,11.64
2019-04-30T01:19:45.898Z,11.65
2019-04-30T01:22:21.270Z,11.62
2019-04-30T01:24:52.274Z,11.60
2019-04-30T01:27:24.183Z,11.59
2019-04-30T01:29:56.109Z,11.59
2019-04-30T01:32:28.509Z,11.58
2019-04-30T01:35:00.565Z,11.58
2019-04-30T01:37:32.907Z,11.57
2019-04-30T01:40:10.637Z,11.60
2019-04-30T01:42:42.925Z,11.60
2019-04-30T01:45:12.662Z,11.60
2019-04-30T01:47:44.623Z,11.59
2019-04-30T01:50:16.492Z,11.58
2019-04-30T01:52:54.437Z,11.55
2019-04-30T01:55:38.969Z,11.55
2019-04-30T01:58:30.256Z,11.51
2019-04-30T02:01:06.617Z,11.51
2019-04-30T02:03:40.077Z,11.49
2019-04-30T02:06:12.200Z,11.48
2019-04-30T02:08:44.025Z,11.46
2019-04-30T02:11:15.787Z,11.44
2019-04-30T02:13:49.179Z,11.45
2019-04-30T02:16:21.310Z,11.48
2019-04-30T02:18:53.302Z,11.47
2019-04-30T02:21:25.103Z,11.47
2019-04-30T02:23:58.806Z,11.46
2019-04-30T02:26:30.370Z,11.45
2019-04-30T02:29:02.145Z,11.46
2019-04-30T02:31:33.962Z,11.47
2019-04-30T02:34:21.831Z,11.48
2019-04-30T02:37:06.094Z,11.50
2019-04-30T02:39:40.333Z,11.49
2019-04-30T02:42:13.973Z,11.49
2019-04-30T02:44:50.398Z,11.49
2019-04-30T02:47:25.342Z,11.49
2019-04-30T02:50:14.392Z,11.49
2019-04-30T02:52:37.234Z,11.49
2019-04-30T02:55:13.576Z,11.45
2019-04-30T02:57:45.340Z,11.42
2019-04-30T03:00:20.726Z,11.40
2019-04-30T03:02:52.844Z,11.35
2019-04-30T03:05:24.705Z,11.29
2019-04-30T03:07:56.492Z,11.23
2019-04-30T03:10:30.394Z,11.18
2019-04-30T03:13:01.784Z,11.15
2019-04-30T03:15:33.745Z,11.08
2019-04-30T03:18:26.355Z,11.05
2019-04-30T03:21:11.670Z,11.00
2019-04-30T03:23:43.822Z,10.94
2019-04-30T03:26:15.641Z,10.88
2019-04-30T03:28:49.303Z,10.87
2019-04-30T03:31:22.447Z,10.84
2019-04-30T03:33:54.465Z,10.81
2019-04-30T03:36:26.511Z,10.80
2019-04-30T03:39:00.031Z,10.68
2019-04-30T03:41:33.607Z,10.74
2019-04-30T03:44:20.917Z,10.74
2019-04-30T03:46:40.550Z,10.73
2019-04-30T03:49:13.414Z,10.73
2019-04-30T03:51:46.184Z,10.73
2019-04-30T03:54:19.269Z,10.72
2019-04-30T03:56:53.093Z,10.74
2019-04-30T03:59:24.862Z,10.75
2019-04-30T04:02:16.502Z,10.75
2019-04-30T04:04:52.903Z,10.75
2019-04-30T04:07:49.815Z,10.77
2019-04-30T04:10:45.276Z,10.82
2019-04-30T04:13:19.626Z,10.88
2019-04-30T04:15:50.594Z,10.94
2019-04-30T04:18:22.414Z,11.00
2019-04-30T04:21:07.680Z,11.07
2019-04-30T04:23:32.308Z,11.14
2019-04-30T04:26:01.314Z,11.21
2019-04-30T04:28:33.085Z,11.29
2019-04-30T04:31:04.902Z,11.36
2019-04-30T04:33:39.393Z,11.46
2019-04-30T04:36:10.240Z,11.54
2019-04-30T04:38:42.122Z,11.62
2019-04-30T04:41:13.888Z,11.72
2019-04-30T04:43:45.964Z,11.82
2019-04-30T04:46:20.333Z,11.93
2019-04-30T04:48:51.203Z,12.05
2019-04-30T04:51:34.472Z,12.15
2019-04-30T04:53:56.459Z,12.26
2019-04-30T04:56:30.445Z,12.36
2019-04-30T04:59:01.672Z,12.46
2019-04-30T05:01:33.462Z,12.57
2019-04-30T05:04:05.627Z,12.70
2019-04-30T05:06:39.408Z,12.81
2019-04-30T05:09:10.917Z,12.90
2019-04-30T05:11:42.717Z,13.04
2019-04-30T05:14:14.491Z,13.15
2019-04-30T05:16:46.321Z,13.26
2019-04-30T05:19:18.647Z,13.40
2019-04-30T05:21:51.738Z,13.51
2019-04-30T05:24:23.567Z,13.59
2019-04-30T05:26:55.336Z,13.79
2019-04-30T05:29:28.795Z,13.88
2019-04-30T05:32:00.611Z,13.90
2019-04-30T05:34:32.383Z,14.03
2019-04-30T05:37:04.169Z,14.11
2019-04-30T05:39:35.944Z,14.15
2019-04-30T05:42:08.830Z,14.31
2019-04-30T05:44:40.809Z,14.43
2019-04-30T05:47:12.589Z,14.57
2019-04-30T05:49:44.348Z,14.69
2019-04-30T05:52:16.139Z,14.81
2019-04-30T05:54:48.866Z,14.88
2019-04-30T05:57:20.797Z,14.98
2019-04-30T05:59:52.593Z,15.06
2019-04-30T06:02:24.482Z,15.13
2019-04-30T06:04:56.392Z,15.28
2019-04-30T06:07:29.823Z,15.41
2019-04-30T06:10:25.208Z,15.46
2019-04-30T06:13:05.169Z,15.62
2019-04-30T06:15:53.025Z,15.74
2019-04-30T06:18:24.924Z,15.85
2019-04-30T06:20:56.725Z,15.91
2019-04-30T06:23:29.357Z,16.07
2019-04-30T06:26:09.725Z,16.17
2019-04-30T06:28:36.904Z,16.21
2019-04-30T06:31:09.101Z,16.35
2019-04-30T06:33:41.250Z,16.40
2019-04-30T06:36:13.447Z,16.14
2019-04-30T06:38:45.237Z,16.39
2019-04-30T06:41:17.516Z,16.31
2019-04-30T06:43:50.294Z,16.49
2019-04-30T06:46:22.112Z,16.67
2019-04-30T06:48:54.899Z,16.87
2019-04-30T06:51:26.689Z,17.00
2019-04-30T06:53:58.713Z,17.07
2019-04-30T06:56:32.011Z,17.13
2019-04-30T06:59:03.770Z,17.04
2019-04-30T07:01:35.600Z,17.13
2019-04-30T07:04:07.484Z,17.17
2019-04-30T07:06:43.900Z,17.26
2019-04-30T07:09:33.560Z,17.30
2019-04-30T07:12:25.554Z,17.41
2019-04-30T07:14:49.434Z,17.64
2019-04-30T07:17:21.904Z,17.85
2019-04-30T07:19:56.730Z,17.64
2019-04-30T07:22:39.403Z,17.86
2019-04-30T07:25:00.966Z,17.89
2019-04-30T07:27:32.852Z,18.09
2019-04-30T07:30:04.962Z,17.94
2019-04-30T07:32:38.696Z,18.19
2019-04-30T07:35:10.428Z,18.25
2019-04-30T07:37:42.205Z,18.35
2019-04-30T07:40:14.391Z,18.58
2019-04-30T07:42:46.157Z,18.81
2019-04-30T07:45:19.475Z,19.06
2019-04-30T07:47:51.580Z,18.85
2019-04-30T07:50:24.036Z,18.54
2019-04-30T07:53:04.775Z,18.72
2019-04-30T07:55:30.011Z,18.85
2019-04-30T07:58:01.793Z,18.96
2019-04-30T08:00:33.578Z,19.17
2019-04-30T08:03:31.267Z,19.36
2019-04-30T08:06:04.290Z,19.48
2019-04-30T08:08:37.194Z,19.65
2019-04-30T08:11:09.332Z,19.77
2019-04-30T08:13:43.315Z,19.56
2019-04-30T08:16:15.656Z,19.76
2019-04-30T08:18:49.238Z,19.93
2019-04-30T08:21:20.949Z,19.87
2019-04-30T08:23:52.718Z,19.82
2019-04-30T08:26:24.515Z,20.23
2019-04-30T08:28:56.517Z,20.49
2019-04-30T08:31:29.258Z,20.65
2019-04-30T08:34:02.563Z,21.07
2019-04-30T08:36:34.369Z,21.44
2019-04-30T08:39:09.664Z,21.38
2019-04-30T08:41:41.619Z,21.39
2019-04-30T08:44:13.744Z,21.32
2019-04-30T08:46:45.540Z,21.41
2019-04-30T08:49:19.247Z,20.83
2019-04-30T08:51:51.219Z,21.07
2019-04-30T08:54:23.527Z,21.23
2019-04-30T08:56:55.667Z,21.72
2019-04-30T08:59:29.472Z,21.42
2019-04-30T09:02:12.924Z,21.72
2019-04-30T09:04:35.279Z,22.08
2019-04-30T09:07:10.124Z,22.09
2019-04-30T09:09:40.938Z,21.88
2019-04-30T09:12:14.328Z,21.70
2019-04-30T09:14:48.869Z,21.66
2019-04-30T09:17:20.153Z,21.60
2019-04-30T09:19:52.032Z,21.77
2019-04-30T09:22:23.783Z,21.85
2019-04-30T09:24:55.896Z,21.42
2019-04-30T09:27:29.420Z,21.83
2019-04-30T09:30:01.588Z,22.19
2019-04-30T09:32:33.659Z,22.54
2019-04-30T09:35:06.137Z,22.20
2019-04-30T09:37:39.026Z,22.20
2019-04-30T09:40:17.957Z,22.18
2019-04-30T09:42:45.460Z,22.33
2019-04-30T09:45:18.712Z,22.36
2019-04-30T09:47:50.916Z,22.33
2019-04-30T09:50:22.893Z,22.77
2019-04-30T09:52:54.785Z,23.04
2019-04-30T09:55:28.918Z,23.00
2019-04-30T09:58:00.330Z,23.50
2019-04-30T10:00:32.088Z,23.79
2019-04-30T10:03:04.367Z,24.01
2019-04-30T10:05:36.477Z,23.16
2019-04-30T10:08:08.493Z,23.27
2019-04-30T10:10:49.595Z,22.81
2019-04-30T10:13:21.455Z,22.79
2019-04-30T10:16:09.778Z,22.54
2019-04-30T10:18:42.986Z,22.43
2019-04-30T10:21:14.836Z,22.52
2019-04-30T10:23:46.624Z,22.66
2019-04-30T10:26:18.759Z,22.55
2019-04-30T10:28:53.189Z,22.12
2019-04-30T10:31:25.447Z,21.93
2019-04-30T10:33:58.584Z,21.90
2019-04-30T10:36:32.005Z,21.78
2019-04-30T10:39:05.652Z,21.79
2019-04-30T10:41:39.500Z,21.63
2019-04-30T10:44:11.821Z,21.66
2019-04-30T10:46:43.714Z,21.89
2019-04-30T10:49:15.869Z,22.22
2019-04-30T10:51:47.631Z,22.64
2019-04-30T10:54:26.047Z,22.71
2019-04-30T10:56:52.946Z,23.03
2019-04-30T10:59:25.035Z,23.19
2019-04-30T11:01:56.810Z,23.45
2019-04-30T11:04:29.126Z,23.78
2019-04-30T11:07:00.961Z,23.61
2019-04-30T11:09:33.923Z,23.25
2019-04-30T11:12:06.766Z,22.91
2019-04-30T11:14:38.877Z,22.68
2019-04-30T11:17:11.144Z,22.77
2019-04-30T11:19:43.624Z,22.87
2019-04-30T11:22:15.878Z,22.77
2019-04-30T11:24:58.355Z,22.62
2019-04-30T11:27:22.365Z,22.41
2019-04-30T11:30:01.494Z,22.21
2019-04-30T11:32:28.631Z,22.28
2019-04-30T11:35:00.620Z,22.90
2019-04-30T11:37:32.547Z,23.00
2019-04-30T11:40:05.016Z,22.92
2019-04-30T11:42:36.837Z,22.62
2019-04-30T11:45:10.073Z,22.74
2019-04-30T11:47:53.072Z,22.79
2019-04-30T11:50:17.109Z,22.38
2019-04-30T11:52:49.041Z,21.91
2019-04-30T11:55:21.163Z,21.58
2019-04-30T11:57:52.970Z,22.24
2019-04-30T12:00:32.491Z,22.89
2019-04-30T12:03:04.385Z,23.18
2019-04-30T12:05:36.462Z,23.76
2019-04-30T12:08:14.732Z,23.65
2019-04-30T12:11:08.678Z,23.28
2019-04-30T12:13:40.541Z,24.13
2019-04-30T12:16:12.603Z,24.32
2019-04-30T12:18:44.443Z,23.56
2019-04-30T12:21:16.406Z,24.41
2019-04-30T12:23:48.188Z,24.99
2019-04-30T12:26:20.061Z,25.69
2019-04-30T12:28:53.100Z,25.97
2019-04-30T12:31:25.191Z,26.51
2019-04-30T12:33:57.029Z,26.55
2019-04-30T12:36:29.161Z,27.34
2019-04-30T12:39:01.021Z,27.77
2019-04-30T12:41:34.684Z,28.62
2019-04-30T12:44:06.649Z,28.75
2019-04-30T12:46:38.775Z,26.17
2019-04-30T12:49:12.670Z,27.14
2019-04-30T12:52:15.316Z,28.58
2019-04-30T12:54:54.543Z,30.44
2019-04-30T12:57:33.461Z,32.40
2019-04-30T13:00:09.314Z,33.05
2019-04-30T13:02:41.952Z,34.89
2019-04-30T13:05:14.838Z,36.62
2019-04-30T13:07:47.460Z,37.50
2019-04-30T13:10:21.633Z,37.81
2019-04-30T13:12:54.561Z,35.30
2019-04-30T13:15:26.701Z,32.69
2019-04-30T13:17:58.656Z,30.11
2019-04-30T13:20:31.592Z,28.61
2019-04-30T13:23:03.469Z,27.20
2019-04-30T13:25:35.745Z,25.68
2019-04-30T13:28:13.705Z,24.95
2019-04-30T13:30:45.513Z,24.61
2019-04-30T13:33:32.639Z,29.04
2019-04-30T13:36:04.541Z,32.99
2019-04-30T13:38:51.710Z,36.75
2019-04-30T13:41:51.083Z,38.95
2019-04-30T13:44:29.300Z,39.09
2019-04-30T13:47:01.068Z,37.15
2019-04-30T13:49:32.826Z,33.08
2019-04-30T13:52:04.772Z,30.38
2019-04-30T13:54:36.787Z,28.66
2019-04-30T13:57:09.145Z,27.32
2019-04-30T13:59:40.966Z,26.35
2019-04-30T14:02:13.121Z,25.53
2019-04-30T14:05:02.206Z,28.67
2019-04-30T14:08:05.520Z,34.04
2019-04-30T14:10:41.444Z,38.46
2019-04-30T14:13:13.535Z,40.98
2019-04-30T14:15:47.947Z,42.66
2019-04-30T14:18:28.568Z,43.51
2019-04-30T14:20:53.557Z,44.33
2019-04-30T14:23:25.405Z,45.45
2019-04-30T14:26:00.926Z,45.78
2019-04-30T14:28:30.953Z,46.23
2019-04-30T14:31:02.774Z,45.92
2019-04-30T14:33:34.681Z,43.92
2019-04-30T14:36:06.476Z,41.53
2019-04-30T14:38:40.503Z,36.91
2019-04-30T14:41:12.778Z,33.33
2019-04-30T14:43:50.920Z,30.90
2019-04-30T14:46:42.879Z,29.27
2019-04-30T14:49:35.973Z,28.20
2019-04-30T14:52:09.329Z,27.49
2019-04-30T14:54:52.496Z,30.91
2019-04-30T14:57:55.584Z,35.62
2019-04-30T15:00:41.442Z,38.40
2019-04-30T15:03:14.507Z,39.75
2019-04-30T15:05:49.398Z,40.68
2019-04-30T15:08:20.057Z,37.28
2019-04-30T15:10:51.941Z,33.83
2019-04-30T15:13:23.725Z,32.41
2019-04-30T15:15:55.558Z,31.23
2019-04-30T15:18:29.049Z,30.19
2019-04-30T15:21:00.970Z,32.52
2019-04-30T15:23:44.315Z,34.48
2019-04-30T15:26:22.174Z,36.97
2019-04-30T15:28:49.960Z,38.95
2019-04-30T15:31:22.829Z,39.21
2019-04-30T15:34:02.982Z,36.65
2019-04-30T15:36:33.722Z,33.36
2019-04-30T15:39:39.101Z,29.96
2019-04-30T15:42:12.131Z,28.15
2019-04-30T15:44:45.842Z,26.34
2019-04-30T15:47:18.922Z,25.23
2019-04-30T15:49:50.961Z,24.71
2019-04-30T15:52:22.878Z,24.58
2019-04-30T15:54:54.728Z,26.98
2019-04-30T15:57:26.632Z,30.39
2019-04-30T15:59:58.434Z,32.89
2019-04-30T16:02:56.350Z,34.45
2019-04-30T16:05:33.191Z,35.67
2019-04-30T16:08:36.195Z,36.42
2019-04-30T16:11:25.506Z,36.99
2019-04-30T16:14:14.367Z,37.23
2019-04-30T16:16:51.497Z,37.32
2019-04-30T16:19:24.551Z,36.09
2019-04-30T16:21:56.592Z,33.24
2019-04-30T16:24:28.866Z,31.72
2019-04-30T16:27:01.031Z,31.07
2019-04-30T16:29:33.072Z,29.75
2019-04-30T16:32:05.234Z,30.73
2019-04-30T16:34:39.014Z,30.91
2019-04-30T16:37:10.929Z,30.89
2019-04-30T16:39:42.952Z,31.50
2019-04-30T16:42:14.861Z,31.97
2019-04-30T16:44:46.913Z,31.88
2019-04-30T16:47:19.906Z,31.39
2019-04-30T16:49:52.501Z,30.50
2019-04-30T16:52:24.358Z,29.31
2019-04-30T16:54:56.153Z,28.24
2019-04-30T16:57:30.181Z,27.46
2019-04-30T17:00:01.529Z,26.60
2019-04-30T17:02:34.867Z,25.84
2019-04-30T17:05:19.805Z,25.06
2019-04-30T17:08:09.446Z,24.53
2019-04-30T17:10:50.522Z,24.01
2019-04-30T17:13:41.229Z,23.43
2019-04-30T17:16:16.592Z,22.93
2019-04-30T17:18:49.918Z,22.39
2019-04-30T17:21:22.070Z,22.10
2019-04-30T17:23:53.870Z,21.84
2019-04-30T17:26:25.744Z,21.61
2019-04-30T17:28:59.738Z,21.40
2019-04-30T17:31:31.564Z,21.19
2019-04-30T17:34:03.418Z,20.93
2019-04-30T17:36:35.307Z,20.71
2019-04-30T17:39:11.989Z,20.52
2019-04-30T17:41:44.027Z,20.32
2019-04-30T17:44:15.833Z,20.11
2019-04-30T17:46:50.221Z,19.93
2019-04-30T17:49:22.180Z,19.72
2019-04-30T17:51:54.253Z,19.51
2019-04-30T17:54:26.193Z,19.31
2019-04-30T17:56:58.031Z,19.15
2019-04-30T17:59:29.843Z,18.97
2019-04-30T18:02:03.986Z,18.81
2019-04-30T18:04:35.994Z,18.64
2019-04-30T18:07:09.911Z,18.50
2019-04-30T18:09:41.575Z,18.41
2019-04-30T18:12:13.526Z,18.28
2019-04-30T18:14:45.477Z,18.18
2019-04-30T18:17:17.496Z,18.06
2019-04-30T18:20:06.811Z,17.98
2019-04-30T18:22:53.333Z,17.90
2019-04-30T18:25:33.761Z,17.80
2019-04-30T18:28:05.771Z,17.70
2019-04-30T18:30:39.120Z,17.57
2019-04-30T18:33:11.517Z,17.46
2019-04-30T18:35:43.585Z,17.39
2019-04-30T18:38:17.732Z,17.30
2019-04-30T18:40:50.450Z,17.20
2019-04-30T18:43:22.675Z,17.08
2019-04-30T18:45:54.458Z,16.98
2019-04-30T18:48:29.388Z,16.90
2019-04-30T18:51:01.111Z,16.78
2019-04-30T18:53:34.830Z,16.70
2019-04-30T18:56:12.190Z,16.60
2019-04-30T18:58:43.116Z,16.51
2019-04-30T19:01:14.377Z,16.41
2019-04-30T19:03:46.317Z,16.31
2019-04-30T19:06:26.073Z,16.21
2019-04-30T19:09:29.664Z,16.11
2019-04-30T19:12:12.371Z,15.99
2019-04-30T19:15:03.339Z,15.86
2019-04-30T19:18:12.128Z,15.77
2019-04-30T19:20:46.823Z,15.65
2019-04-30T19:23:19.099Z,15.55
2019-04-30T19:25:51.258Z,15.47
2019-04-30T19:28:23.029Z,15.46
2019-04-30T19:30:58.116Z,15.40
2019-04-30T19:33:30.790Z,15.31
2019-04-30T19:36:02.260Z,15.21
2019-04-30T19:38:34.081Z,15.13
2019-04-30T19:41:06.183Z,15.02
2019-04-30T19:43:39.111Z,14.89
2019-04-30T19:46:11.850Z,14.77
2019-04-30T19:48:44.060Z,14.68
2019-04-30T19:51:16.149Z,14.61
2019-04-30T19:53:49.014Z,14.51
2019-04-30T19:56:21.642Z,14.41
2019-04-30T19:59:01.970Z,14.33
2019-04-30T20:01:28.699Z,14.24
2019-04-30T20:04:01.573Z,14.11
2019-04-30T20:06:34.815Z,14.01
2019-04-30T20:09:08.937Z,13.94
2019-04-30T20:11:43.993Z,13.87
2019-04-30T20:14:16.044Z,13.79
2019-04-30T20:16:48.683Z,13.70
2019-04-30T20:19:20.897Z,13.63
2019-04-30T20:21:53.934Z,13.53
2019-04-30T20:24:25.898Z,13.49
2019-04-30T20:27:06.393Z,13.41
2019-04-30T20:29:33.744Z,13.35
2019-04-30T20:32:05.851Z,13.29
2019-04-30T20:34:39.200Z,13.25
2019-04-30T20:37:12.518Z,13.18
2019-04-30T20:39:50.576Z,13.14
2019-04-30T20:42:23.698Z,13.06
2019-04-30T20:44:55.667Z,13.01
2019-04-30T20:47:30.042Z,12.96
2019-04-30T20:50:01.792Z,12.91
2019-04-30T20:52:33.947Z,12.84
2019-04-30T20:55:06.163Z,12.77
2019-04-30T20:57:39.648Z,12.71
2019-04-30T21:00:12.660Z,12.66
2019-04-30T21:02:44.623Z,12.60
2019-04-30T21:05:16.466Z,12.52
2019-04-30T21:07:48.732Z,12.47
2019-04-30T21:10:21.124Z,12.40
2019-04-30T21:12:53.051Z,12.36
2019-04-30T21:15:25.784Z,12.28
2019-04-30T21:17:58.726Z,12.23
2019-04-30T21:20:32.284Z,12.15
2019-04-30T21:23:04.701Z,12.09
2019-04-30T21:25:38.589Z,12.06
2019-04-30T21:28:10.108Z,12.01
2019-04-30T21:30:42.040Z,11.91
2019-04-30T21:33:38.492Z,11.86
2019-04-30T21:36:19.332Z,11.85
2019-04-30T21:38:51.316Z,11.83
2019-04-30T21:41:23.195Z,11.81
2019-04-30T21:43:55.023Z,11.80
2019-04-30T21:46:29.353Z,11.75
2019-04-30T21:49:01.657Z,11.71
2019-04-30T21:51:33.446Z,11.66
2019-04-30T21:54:05.312Z,11.60
2019-04-30T21:56:37.885Z,11.54
2019-04-30T21:59:09.769Z,11.52
2019-04-30T22:01:43.211Z,11.34
2019-04-30T22:04:16.024Z,11.31
2019-04-30T22:06:49.487Z,11.28
2019-04-30T22:09:21.834Z,11.24
2019-04-30T22:11:53.587Z,11.19
2019-04-30T22:14:25.694Z,11.22
2019-04-30T22:16:59.277Z,11.22
2019-04-30T22:19:32.316Z,11.19
2019-04-30T22:22:04.471Z,11.17
2019-04-30T22:24:38.755Z,11.18
2019-04-30T22:27:10.282Z,11.19
2019-04-30T22:29:42.413Z,11.15
2019-04-30T22:32:14.830Z,11.10
2019-04-30T22:34:47.270Z,11.05
2019-04-30T22:37:19.527Z,11.03
2019-04-30T22:39:59.383Z,10.99
2019-04-30T22:42:34.029Z,10.94
2019-04-30T22:45:38.266Z,10.87
2019-04-30T22:48:11.033Z,10.84
2019-04-30T22:50:42.924Z,10.77
2019-04-30T22:53:14.727Z,10.74
2019-04-30T22:55:46.802Z,10.74
2019-04-30T22:58:18.613Z,10.73
2019-04-30T23:00:52.274Z,10.75
2019-04-30T23:03:32.160Z,10.73
2019-04-30T23:06:04.136Z,10.68
2019-04-30T23:08:35.980Z,10.62
2019-04-30T23:11:08.165Z,10.59
2019-04-30T23:13:39.942Z,10.55
2019-04-30T23:16:13.380Z,10.53
2019-04-30T23:18:45.241Z,10.47
2019-04-30T23:21:17.307Z,10.45
2019-04-30T23:23:49.599Z,10.40
2019-04-30T23:26:22.420Z,10.38
2019-04-30T23:28:54.173Z,10.36
2019-04-30T23:31:26.099Z,10.30
2019-04-30T23:33:58.125Z,10.24
2019-04-30T23:36:30.793Z,10.23
2019-04-30T23:39:02.595Z,10.20
2019-04-30T23:41:37.600Z,10.15
2019-04-30T23:44:09.560Z,10.13
2019-04-30T23:46:41.411Z,10.14
2019-04-30T23:49:13.447Z,10.15
2019-04-30T23:54:22.609Z,10.21
2019-04-30T23:56:54.356Z,10.17
2019-04-30T23:59:26.372Z,10.21
